Time;durP1;ratioP1;P1;durP2;ratioP2;P2;SDS_P1;SDS_P2;PMS_P1;PMS_P2;Temp;Humidity;BMP_temperature;BMP_pressure;BME280_temperature;BME280_humidity;BME280_pressure;Samples;Min_cycle;Max_cycle;Signal;HPM_P1;HPM_P2
2022/07/29 00:02:07;;;;;;;2.78;0.47;;;14.70;99.90;;;;;;4998086;28;20050;-78
2022/07/29 00:04:37;;;;;;;3.53;0.50;;;14.70;99.90;;;;;;5001732;28;20107;-79
2022/07/29 00:07:04;;;;;;;6.28;1.00;;;14.70;99.90;;;;;;5002100;28;20049;-77
2022/07/29 00:09:29;;;;;;;1.38;0.60;;;14.70;99.90;;;;;;5000884;28;20045;-79
2022/07/29 00:11:58;;;;;;;7.22;1.80;;;14.70;99.90;;;;;;5004492;28;20378;-78
2022/07/29 00:14:24;;;;;;;3.70;0.70;;;14.70;99.90;;;;;;5004507;28;20413;-78
2022/07/29 00:16:49;;;;;;;3.20;0.50;;;14.70;99.90;;;;;;5004669;28;20045;-77
2022/07/29 00:19:15;;;;;;;2.35;0.50;;;14.70;99.90;;;;;;5006878;28;20038;-77
2022/07/29 00:21:41;;;;;;;1.80;0.38;;;14.60;99.90;;;;;;5001507;28;20041;-78
2022/07/29 00:24:06;;;;;;;1.30;0.52;;;14.60;99.90;;;;;;5001861;28;20103;-78
2022/07/29 00:26:32;;;;;;;2.65;0.70;;;14.60;99.90;;;;;;5002360;28;20074;-78
2022/07/29 00:29:02;;;;;;;3.00;0.55;;;14.60;99.90;;;;;;5004286;28;20034;-79
2022/07/29 00:31:28;;;;;;;4.40;0.98;;;14.60;99.90;;;;;;5002840;28;20034;-79
2022/07/29 00:33:54;;;;;;;2.42;0.70;;;14.60;99.90;;;;;;4998456;28;20092;-78
2022/07/29 00:36:22;;;;;;;7.10;0.90;;;14.50;99.90;;;;;;5000467;28;20037;-79
2022/07/29 00:38:49;;;;;;;3.70;0.63;;;14.50;99.90;;;;;;5002776;28;20120;-80
2022/07/29 00:41:16;;;;;;;4.38;0.75;;;14.60;99.90;;;;;;4998882;28;20055;-77
2022/07/29 00:43:42;;;;;;;3.30;0.50;;;14.50;99.90;;;;;;5005293;28;20042;-77
2022/07/29 00:46:08;;;;;;;6.15;1.00;;;14.60;99.90;;;;;;5004420;28;20129;-77
2022/07/29 00:48:34;;;;;;;2.65;0.63;;;14.50;99.90;;;;;;5002709;28;20354;-80
2022/07/29 00:51:02;;;;;;;3.00;0.70;;;14.50;99.90;;;;;;5001388;28;20104;-78
2022/07/29 00:53:27;;;;;;;2.97;1.00;;;14.50;99.90;;;;;;5001265;28;20113;-78
2022/07/29 00:55:58;;;;;;;3.55;0.63;;;14.50;99.90;;;;;;5002411;28;20121;-77
2022/07/29 00:58:23;;;;;;;5.15;0.80;;;14.50;99.90;;;;;;5012577;28;20501;-78
2022/07/29 01:00:49;;;;;;;2.22;0.60;;;14.50;99.90;;;;;;4997868;28;20049;-80
2022/07/29 01:03:15;;;;;;;5.25;0.63;;;14.50;99.90;;;;;;5001696;28;20042;-77
2022/07/29 01:05:42;;;;;;;2.42;0.80;;;14.50;99.90;;;;;;5003561;28;20523;-77
2022/07/29 01:08:08;;;;;;;2.58;0.50;;;14.50;99.90;;;;;;5003496;28;20100;-78
2022/07/29 01:10:39;;;;;;;2.55;0.77;;;14.50;99.90;;;;;;5009434;28;20392;-77
2022/07/29 01:13:05;;;;;;;2.35;0.65;;;14.50;99.90;;;;;;4999717;28;20056;-77
2022/07/29 01:15:32;;;;;;;0.98;0.63;;;14.50;99.90;;;;;;5006136;28;20045;-77
2022/07/29 01:18:03;;;;;;;1.55;0.88;;;14.50;99.90;;;;;;5008247;28;20038;-79
2022/07/29 01:20:54;;;;;;;2.33;0.70;;;14.50;99.90;;;;;;5005767;28;20760;-78
2022/07/29 01:23:58;;;;;;;2.45;0.68;;;14.50;99.90;;;;;;4999497;28;20105;-78
2022/07/29 01:27:04;;;;;;;3.30;0.60;;;14.40;99.90;;;;;;5007934;28;20532;-79
2022/07/29 01:29:41;;;;;;;3.20;0.75;;;14.50;99.90;;;;;;5006399;28;20401;-78
2022/07/29 01:32:13;;;;;;;4.75;0.70;;;14.50;99.90;;;;;;5002338;28;20034;-78
2022/07/29 01:35:02;;;;;;;3.65;0.90;;;14.50;99.90;;;;;;5002109;28;21768;-78
2022/07/29 01:37:39;;;;;;;2.25;0.70;;;14.50;99.90;;;;;;4998313;28;20058;-77
2022/07/29 01:40:07;;;;;;;2.25;0.77;;;14.50;99.90;;;;;;4998847;28;20050;-80
2022/07/29 01:42:38;;;;;;;2.60;0.73;;;14.50;99.90;;;;;;5004733;28;20041;-79
2022/07/29 01:45:30;;;;;;;2.70;0.65;;;14.60;99.90;;;;;;5018592;28;20052;-79
2022/07/29 01:48:16;;;;;;;1.55;0.73;;;14.60;99.90;;;;;;5000579;28;20061;-77
2022/07/29 01:50:53;;;;;;;4.00;1.20;;;14.60;99.90;;;;;;5001932;28;20240;-78
2022/07/29 01:53:28;;;;;;;4.93;0.88;;;14.60;99.90;;;;;;5007234;28;20651;-77
2022/07/29 01:55:57;;;;;;;3.20;0.60;;;14.60;99.90;;;;;;5005232;28;20045;-78
2022/07/29 01:58:24;;;;;;;2.25;0.52;;;14.60;99.90;;;;;;5010205;28;20034;-77
2022/07/29 02:00:51;;;;;;;3.83;1.10;;;14.60;99.90;;;;;;5003476;28;20092;-78
2022/07/29 02:03:18;;;;;;;3.15;0.85;;;14.60;99.90;;;;;;5005464;28;20164;-77
2022/07/29 02:05:46;;;;;;;4.32;0.77;;;14.70;99.90;;;;;;5006530;28;20042;-79
2022/07/29 02:08:15;;;;;;;1.73;0.75;;;14.70;99.90;;;;;;5004344;28;20046;-79
2022/07/29 02:10:42;;;;;;;3.42;0.60;;;14.70;99.90;;;;;;5005779;28;20065;-78
2022/07/29 02:13:11;;;;;;;4.53;0.60;;;14.70;99.90;;;;;;5000712;28;20048;-78
2022/07/29 02:15:37;;;;;;;2.10;0.70;;;14.70;99.90;;;;;;4988284;28;20050;-79
2022/07/29 02:18:14;;;;;;;6.57;0.60;;;14.70;99.90;;;;;;5002371;28;20504;-79
2022/07/29 02:20:41;;;;;;;2.35;0.77;;;14.80;99.90;;;;;;5000658;28;20060;-79
2022/07/29 02:23:09;;;;;;;2.15;0.45;;;14.80;99.90;;;;;;5004761;28;20495;-78
2022/07/29 02:25:35;;;;;;;1.92;0.80;;;14.70;99.90;;;;;;5007382;28;20124;-78
2022/07/29 02:28:03;;;;;;;4.85;0.68;;;14.80;99.90;;;;;;5002652;28;20397;-77
2022/07/29 02:30:30;;;;;;;4.13;1.15;;;14.80;99.90;;;;;;5006532;28;20759;-78
2022/07/29 02:32:57;;;;;;;2.47;0.57;;;14.80;99.90;;;;;;4997157;28;20060;-77
2022/07/29 02:35:23;;;;;;;2.83;0.52;;;14.80;99.90;;;;;;5001807;28;20053;-80
2022/07/29 02:40:38;;;;;;;3.58;0.82;;;14.80;99.90;;;;;;5000591;28;20850;-79
2022/07/29 02:43:06;;;;;;;3.17;0.70;;;14.70;99.90;;;;;;5018601;28;20042;-78
2022/07/29 02:45:34;;;;;;;2.00;0.70;;;14.70;99.90;;;;;;5005609;28;20042;-78
2022/07/29 02:48:04;;;;;;;2.47;0.60;;;14.70;99.90;;;;;;5003602;28;20045;-78
2022/07/29 02:50:34;;;;;;;2.95;0.88;;;14.70;99.90;;;;;;4984108;28;20042;-80
2022/07/29 02:53:19;;;;;;;4.55;0.70;;;14.70;99.90;;;;;;5000903;28;20144;-78
2022/07/29 02:56:09;;;;;;;2.67;0.80;;;14.70;99.90;;;;;;5019657;28;20050;-78
2022/07/29 02:58:49;;;;;;;2.40;0.60;;;14.70;99.90;;;;;;5006690;28;20204;-78
2022/07/29 03:01:23;;;;;;;7.15;0.85;;;14.70;99.90;;;;;;4999173;28;20046;-79
2022/07/29 03:03:52;;;;;;;6.38;1.58;;;14.70;99.90;;;;;;5001427;28;20050;-78
2022/07/29 03:06:20;;;;;;;5.32;1.05;;;14.70;99.90;;;;;;5004729;28;20730;-79
2022/07/29 03:08:46;;;;;;;3.88;0.90;;;14.80;99.90;;;;;;5006669;28;20515;-77
2022/07/29 03:11:13;;;;;;;3.58;0.60;;;14.70;99.90;;;;;;5002560;28;21864;-78
2022/07/29 03:13:39;;;;;;;2.58;0.52;;;14.70;99.90;;;;;;5001644;28;20139;-77
2022/07/29 03:16:06;;;;;;;3.38;0.98;;;14.70;99.90;;;;;;5002792;28;20045;-77
2022/07/29 03:18:32;;;;;;;4.63;0.68;;;14.70;99.90;;;;;;5006553;28;20060;-77
2022/07/29 03:20:58;;;;;;;5.78;0.90;;;14.80;99.90;;;;;;5005038;28;20129;-78
2022/07/29 03:23:25;;;;;;;1.40;0.50;;;14.70;99.90;;;;;;5000552;28;20056;-78
2022/07/29 03:25:52;;;;;;;2.47;0.60;;;14.80;99.90;;;;;;5004295;28;20077;-78
2022/07/29 03:28:18;;;;;;;2.13;0.50;;;14.70;99.90;;;;;;5005731;28;20050;-81
2022/07/29 03:30:44;;;;;;;2.30;0.68;;;14.80;99.90;;;;;;5017021;28;21891;-78
2022/07/29 03:33:09;;;;;;;2.15;0.70;;;14.90;99.90;;;;;;5000191;28;20056;-77
2022/07/29 03:35:35;;;;;;;4.30;0.60;;;14.70;99.90;;;;;;5004741;28;20052;-80
2022/07/29 03:38:00;;;;;;;0.85;0.45;;;14.70;99.90;;;;;;5007679;28;20121;-77
2022/07/29 03:40:35;;;;;;;5.70;0.68;;;14.70;99.90;;;;;;4984887;28;20096;-79
2022/07/29 03:43:02;;;;;;;5.40;1.02;;;14.70;99.90;;;;;;5002626;28;20107;-77
2022/07/29 03:45:30;;;;;;;3.35;0.57;;;14.70;99.90;;;;;;5003260;28;21698;-77
2022/07/29 03:48:01;;;;;;;2.70;0.60;;;14.60;99.90;;;;;;5001351;28;20132;-78
2022/07/29 03:50:29;;;;;;;2.72;0.57;;;14.70;99.90;;;;;;5002891;28;20045;-78
2022/07/29 03:52:55;;;;;;;4.60;0.93;;;14.70;99.90;;;;;;5002420;28;20081;-77
2022/07/29 03:55:21;;;;;;;7.95;1.10;;;14.70;99.90;;;;;;5004299;28;20096;-78
2022/07/29 03:57:47;;;;;;;3.53;0.50;;;14.70;99.90;;;;;;5004542;28;20492;-78
2022/07/29 04:00:15;;;;;;;4.43;0.90;;;14.70;99.90;;;;;;5002436;28;20055;-78
2022/07/29 04:02:44;;;;;;;4.00;0.70;;;14.60;99.90;;;;;;4999048;28;20069;-77
2022/07/29 04:05:14;;;;;;;3.90;0.70;;;14.70;99.90;;;;;;5004107;28;20058;-77
2022/07/29 04:07:44;;;;;;;3.67;0.68;;;14.60;99.90;;;;;;5005412;28;20504;-80
2022/07/29 04:10:10;;;;;;;6.15;0.90;;;14.60;99.90;;;;;;5001902;28;20049;-80
2022/07/29 04:12:35;;;;;;;3.95;0.50;;;14.60;99.90;;;;;;5002758;28;20578;-78
2022/07/29 04:15:03;;;;;;;4.00;0.70;;;14.60;99.90;;;;;;5004731;28;20037;-78
2022/07/29 04:17:28;;;;;;;3.05;0.80;;;14.60;99.90;;;;;;5018255;28;20057;-77
2022/07/29 04:19:54;;;;;;;5.47;0.55;;;14.60;99.90;;;;;;5003996;28;20046;-78
2022/07/29 04:22:19;;;;;;;2.15;0.75;;;14.60;99.90;;;;;;5002760;28;20053;-77
2022/07/29 04:24:45;;;;;;;2.90;0.60;;;14.60;99.90;;;;;;5002995;28;20041;-77
2022/07/29 04:27:11;;;;;;;4.10;0.88;;;14.70;99.90;;;;;;5004001;28;20041;-78
2022/07/29 04:29:36;;;;;;;2.13;0.65;;;14.70;99.90;;;;;;4998835;28;20408;-78
2022/07/29 04:32:02;;;;;;;4.78;1.95;;;14.60;99.90;;;;;;5001511;28;20129;-81
2022/07/29 04:34:27;;;;;;;1.23;0.40;;;14.60;99.90;;;;;;5005989;28;20053;-79
2022/07/29 04:36:53;;;;;;;3.05;0.50;;;14.70;99.90;;;;;;4998636;28;20045;-77
2022/07/29 04:39:18;;;;;;;3.30;0.88;;;14.60;99.90;;;;;;4997313;28;20041;-79
2022/07/29 04:41:44;;;;;;;2.75;0.70;;;14.60;99.90;;;;;;5001449;28;20041;-78
2022/07/29 04:44:10;;;;;;;3.25;1.15;;;14.70;99.90;;;;;;5008125;28;20060;-78
2022/07/29 04:46:35;;;;;;;5.28;0.73;;;14.70;99.90;;;;;;5008426;28;20421;-78
2022/07/29 04:49:02;;;;;;;5.05;1.45;;;14.60;99.90;;;;;;5004035;28;20041;-78
2022/07/29 04:51:28;;;;;;;5.85;0.70;;;14.70;99.90;;;;;;5007487;28;20085;-79
2022/07/29 04:53:53;;;;;;;2.20;0.68;;;14.70;99.90;;;;;;5006441;28;20091;-78
2022/07/29 04:56:19;;;;;;;5.18;0.90;;;14.60;99.90;;;;;;5003435;28;20053;-78
2022/07/29 04:58:44;;;;;;;1.55;0.63;;;14.60;99.90;;;;;;5006089;28;20046;-78
2022/07/29 05:01:10;;;;;;;2.72;0.80;;;14.60;99.90;;;;;;5004561;28;20050;-79
2022/07/29 05:03:36;;;;;;;2.80;0.63;;;14.60;99.90;;;;;;5006492;28;20117;-79
2022/07/29 05:06:01;;;;;;;2.50;0.80;;;14.60;99.90;;;;;;5007360;28;20056;-78
2022/07/29 05:08:27;;;;;;;6.30;1.20;;;14.60;99.90;;;;;;5004106;28;20034;-79
2022/07/29 05:10:52;;;;;;;4.45;0.60;;;14.60;99.90;;;;;;5002906;28;20088;-78
2022/07/29 05:13:18;;;;;;;1.08;0.57;;;14.70;99.90;;;;;;5007717;28;20034;-78
2022/07/29 05:15:43;;;;;;;1.77;0.77;;;14.70;99.90;;;;;;5008321;28;20104;-77
2022/07/29 05:18:09;;;;;;;4.90;1.00;;;14.60;99.90;;;;;;5005219;28;20045;-79
2022/07/29 05:20:35;;;;;;;3.42;0.70;;;14.70;99.90;;;;;;5004258;28;20056;-79
2022/07/29 05:23:03;;;;;;;4.18;0.90;;;14.70;99.90;;;;;;5004553;28;20084;-78
2022/07/29 05:25:29;;;;;;;3.83;0.93;;;14.70;99.90;;;;;;5010974;28;20057;-78
2022/07/29 05:27:55;;;;;;;2.47;0.95;;;14.80;99.90;;;;;;5007981;28;20044;-78
2022/07/29 05:30:21;;;;;;;4.45;0.85;;;14.70;99.90;;;;;;5003825;28;20123;-77
2022/07/29 05:32:47;;;;;;;1.65;0.73;;;14.80;99.90;;;;;;5002595;28;20081;-78
2022/07/29 05:35:13;;;;;;;5.60;0.60;;;14.80;99.90;;;;;;5005874;28;20155;-78
2022/07/29 05:37:39;;;;;;;4.38;0.82;;;14.80;99.90;;;;;;5019093;28;20041;-78
2022/07/29 05:40:06;;;;;;;4.60;2.05;;;14.80;99.90;;;;;;5005845;28;20394;-78
2022/07/29 05:42:31;;;;;;;3.35;1.02;;;14.90;99.90;;;;;;5005204;28;20224;-78
2022/07/29 05:44:57;;;;;;;2.78;0.80;;;14.90;99.90;;;;;;4990259;28;20290;-79
2022/07/29 05:47:23;;;;;;;2.47;1.08;;;14.90;99.90;;;;;;5007568;28;20584;-79
2022/07/29 05:49:50;;;;;;;2.03;0.80;;;14.90;99.90;;;;;;5003014;28;20042;-79
2022/07/29 05:52:16;;;;;;;6.60;1.00;;;14.90;99.90;;;;;;5005454;28;20042;-79
2022/07/29 05:54:42;;;;;;;3.60;0.73;;;15.00;99.90;;;;;;5001533;28;20400;-79
2022/07/29 05:57:08;;;;;;;3.75;0.88;;;15.00;99.90;;;;;;5003688;28;20042;-80
2022/07/29 05:59:37;;;;;;;4.50;1.10;;;15.10;99.90;;;;;;5004745;28;20042;-79
2022/07/29 06:02:04;;;;;;;1.98;1.08;;;15.20;99.90;;;;;;5017054;28;20042;-80
2022/07/29 06:04:31;;;;;;;7.28;0.98;;;15.20;99.90;;;;;;5005080;28;20104;-79
2022/07/29 06:06:56;;;;;;;3.53;1.40;;;15.30;99.90;;;;;;5005695;28;20546;-79
2022/07/29 06:09:22;;;;;;;1.67;0.70;;;15.50;99.90;;;;;;5007056;28;20034;-79
2022/07/29 06:11:48;;;;;;;4.18;0.90;;;15.70;99.90;;;;;;5006737;28;20064;-79
2022/07/29 06:14:13;;;;;;;2.63;0.65;;;15.80;99.90;;;;;;5007744;28;20100;-79
2022/07/29 06:16:39;;;;;;;3.28;1.08;;;15.90;99.90;;;;;;5008093;28;20050;-80
2022/07/29 06:19:05;;;;;;;4.10;0.50;;;16.00;99.90;;;;;;5006370;28;20627;-79
2022/07/29 06:21:30;;;;;;;2.30;0.68;;;16.10;99.90;;;;;;5005718;28;20111;-79
2022/07/29 06:23:56;;;;;;;3.60;1.13;;;16.20;99.90;;;;;;5005551;28;20153;-80
2022/07/29 06:26:22;;;;;;;4.45;1.23;;;16.30;99.90;;;;;;5005866;28;20073;-81
2022/07/29 06:28:48;;;;;;;3.75;1.00;;;16.40;99.90;;;;;;5005029;28;20073;-80
2022/07/29 06:31:14;;;;;;;4.40;0.85;;;16.40;99.90;;;;;;5007018;28;20073;-80
2022/07/29 06:33:39;;;;;;;3.83;0.90;;;16.40;99.90;;;;;;4989579;28;20409;-79
2022/07/29 06:36:05;;;;;;;5.07;0.93;;;16.50;99.90;;;;;;5006542;28;20050;-79
2022/07/29 06:38:32;;;;;;;2.90;0.63;;;16.60;99.90;;;;;;5006488;28;20037;-79
2022/07/29 06:41:09;;;;;;;4.60;0.90;;;16.70;99.90;;;;;;5005542;28;20041;-79
2022/07/29 06:43:41;;;;;;;4.47;0.80;;;16.70;99.90;;;;;;5004497;28;20057;-79
2022/07/29 06:46:10;;;;;;;3.40;0.82;;;16.70;99.90;;;;;;5008284;28;20046;-80
2022/07/29 06:48:36;;;;;;;6.10;0.93;;;16.70;99.90;;;;;;5001639;28;20096;-77
2022/07/29 06:51:03;;;;;;;3.78;0.82;;;16.70;99.90;;;;;;5001712;28;20038;-81
2022/07/29 06:53:33;;;;;;;3.75;1.02;;;16.60;99.90;;;;;;4993767;28;20038;-81
2022/07/29 06:56:00;;;;;;;5.75;0.95;;;16.50;99.90;;;;;;5012242;28;20045;-82
2022/07/29 06:58:27;;;;;;;3.33;0.80;;;16.40;99.90;;;;;;5004717;28;20060;-79
2022/07/29 07:00:53;;;;;;;4.15;1.20;;;16.40;99.90;;;;;;5002081;28;20092;-78
2022/07/29 07:03:19;;;;;;;3.85;0.93;;;16.40;99.90;;;;;;5004902;28;20045;-78
2022/07/29 07:05:45;;;;;;;4.03;1.05;;;16.20;99.90;;;;;;5003881;28;20045;-80
2022/07/29 07:08:13;;;;;;;3.50;1.60;;;16.30;99.90;;;;;;5005839;28;20610;-80
2022/07/29 07:10:39;;;;;;;2.85;0.63;;;16.20;99.90;;;;;;5000116;28;20881;-81
2022/07/29 07:13:05;;;;;;;3.00;0.85;;;16.20;99.90;;;;;;5002602;28;20574;-78
2022/07/29 07:15:31;;;;;;;4.75;1.02;;;16.20;99.90;;;;;;5002293;28;20362;-78
2022/07/29 07:18:17;;;;;;;1.50;0.70;;;16.20;99.90;;;;;;5009990;28;20096;-79
2022/07/29 07:20:43;;;;;;;5.35;0.73;;;16.10;99.90;;;;;;5004210;28;20224;-79
2022/07/29 07:23:08;;;;;;;4.13;1.15;;;16.10;99.90;;;;;;5003968;28;20126;-78
2022/07/29 07:25:34;;;;;;;6.93;0.73;;;16.10;99.90;;;;;;5000502;28;21901;-81
2022/07/29 07:27:59;;;;;;;2.30;0.85;;;16.00;99.90;;;;;;5002914;28;20892;-79
2022/07/29 07:30:26;;;;;;;3.47;1.00;;;16.00;99.90;;;;;;4999230;28;20038;-78
2022/07/29 07:32:51;;;;;;;4.07;1.20;;;16.00;99.90;;;;;;5002224;28;20048;-79
2022/07/29 07:35:17;;;;;;;3.83;0.98;;;15.90;99.90;;;;;;5002800;28;20050;-78
2022/07/29 07:37:42;;;;;;;4.25;1.25;;;15.90;99.90;;;;;;5003209;28;20042;-80
2022/07/29 07:40:11;;;;;;;2.55;0.93;;;16.00;99.90;;;;;;4999616;28;20064;-79
2022/07/29 07:42:37;;;;;;;3.55;1.02;;;16.00;99.90;;;;;;5006120;28;20131;-81
2022/07/29 07:45:04;;;;;;;5.18;0.98;;;16.10;99.90;;;;;;5003052;28;20735;-83
2022/07/29 07:47:30;;;;;;;3.17;0.98;;;16.10;99.90;;;;;;5001490;28;20439;-82
2022/07/29 07:49:55;;;;;;;8.80;0.80;;;16.20;99.90;;;;;;4989170;28;20084;-79
2022/07/29 07:52:22;;;;;;;2.15;0.88;;;16.30;99.90;;;;;;5006000;28;20115;-80
2022/07/29 07:54:53;;;;;;;10.10;1.27;;;16.40;99.90;;;;;;5003757;28;20048;-80
2022/07/29 07:57:21;;;;;;;2.35;0.85;;;16.50;99.90;;;;;;5004586;28;20044;-80
2022/07/29 08:00:06;;;;;;;5.80;0.80;;;16.50;99.90;;;;;;5005596;28;20514;-80
2022/07/29 08:02:50;;;;;;;3.58;1.20;;;16.60;99.90;;;;;;5003968;28;20057;-80
2022/07/29 08:05:22;;;;;;;3.05;1.00;;;16.70;99.90;;;;;;4991840;28;20033;-81
2022/07/29 08:07:48;;;;;;;4.93;1.15;;;16.80;99.90;;;;;;5004898;28;20042;-81
2022/07/29 08:10:51;;;;;;;4.88;0.88;;;16.90;99.90;;;;;;5019444;28;20182;-83
2022/07/29 08:13:03;;;;;;;3.03;0.93;;;17.00;99.90;;;;;;5004247;28;20176;-80
2022/07/29 08:15:28;;;;;;;3.53;0.93;;;17.10;99.90;;;;;;5002240;28;20766;-80
2022/07/29 08:17:57;;;;;;;3.53;1.25;;;16.80;99.90;;;;;;4993018;28;20132;-82
2022/07/29 08:20:22;;;;;;;2.00;0.77;;;17.30;99.90;;;;;;4988960;28;20053;-79
2022/07/29 08:22:48;;;;;;;2.55;0.88;;;17.40;99.90;;;;;;5006085;28;20049;-82
2022/07/29 08:25:14;;;;;;;5.68;1.85;;;17.50;99.90;;;;;;5005370;28;20558;-81
2022/07/29 08:27:39;;;;;;;5.68;1.02;;;17.70;99.90;;;;;;4990449;28;20053;-81
2022/07/29 08:30:05;;;;;;;4.18;1.38;;;17.80;99.90;;;;;;5004640;28;20050;-81
2022/07/29 08:32:31;;;;;;;6.47;1.77;;;18.00;99.90;;;;;;5004937;28;20053;-81
2022/07/29 08:34:57;;;;;;;4.10;1.40;;;18.10;99.90;;;;;;5003954;28;20050;-81
2022/07/29 08:37:22;;;;;;;4.60;0.98;;;18.20;99.90;;;;;;5006933;28;21443;-80
2022/07/29 08:39:48;;;;;;;4.95;1.08;;;18.30;99.90;;;;;;5003626;28;20034;-80
2022/07/29 08:42:13;;;;;;;4.72;1.20;;;18.30;99.90;;;;;;5005682;28;20042;-81
2022/07/29 08:44:39;;;;;;;4.38;1.23;;;18.30;99.90;;;;;;5002112;28;20069;-80
2022/07/29 08:47:05;;;;;;;4.75;0.90;;;18.30;99.90;;;;;;4998209;28;20089;-79
2022/07/29 08:49:34;;;;;;;6.82;1.27;;;18.30;99.90;;;;;;4984617;28;20093;-78
2022/07/29 08:52:00;;;;;;;6.85;1.30;;;18.30;99.90;;;;;;4999989;28;20480;-79
2022/07/29 08:54:27;;;;;;;5.47;1.15;;;18.30;99.90;;;;;;5001909;28;20045;-82
2022/07/29 08:56:53;;;;;;;8.70;1.13;;;18.30;99.90;;;;;;5001666;28;20046;-79
2022/07/29 08:59:21;;;;;;;2.28;0.88;;;18.30;99.90;;;;;;5004142;28;20034;-78
2022/07/29 09:01:49;;;;;;;3.03;1.10;;;18.40;99.90;;;;;;5002379;28;20095;-79
2022/07/29 09:04:15;;;;;;;2.92;1.60;;;18.40;99.90;;;;;;5019957;28;20074;-81
2022/07/29 09:06:47;;;;;;;4.65;1.65;;;18.50;99.90;;;;;;4999848;28;20042;-79
2022/07/29 09:09:14;;;;;;;6.32;1.55;;;18.40;99.90;;;;;;5004962;28;20101;-78
2022/07/29 09:11:40;;;;;;;7.68;1.30;;;18.40;99.90;;;;;;5005464;28;20400;-78
2022/07/29 09:14:07;;;;;;;3.30;1.08;;;18.40;99.90;;;;;;5006394;28;20049;-80
2022/07/29 09:16:45;;;;;;;4.47;0.90;;;18.40;99.90;;;;;;5003623;28;20125;-79
2022/07/29 09:19:40;;;;;;;5.40;1.05;;;18.50;99.90;;;;;;5004529;28;20037;-81
2022/07/29 09:22:07;;;;;;;4.28;1.23;;;18.50;99.90;;;;;;4998557;28;20081;-80
2022/07/29 09:24:44;;;;;;;10.32;1.63;;;18.40;99.90;;;;;;5001941;28;20042;-80
2022/07/29 09:27:11;;;;;;;4.25;1.10;;;18.40;99.90;;;;;;5017164;28;20124;-79
2022/07/29 09:29:37;;;;;;;4.85;1.50;;;18.30;99.90;;;;;;5006138;28;20044;-80
2022/07/29 09:32:08;;;;;;;4.97;1.15;;;18.30;99.90;;;;;;5008176;28;20555;-79
2022/07/29 09:34:33;;;;;;;4.07;1.05;;;18.10;99.90;;;;;;5007173;28;20447;-78
2022/07/29 09:36:59;;;;;;;6.63;1.58;;;18.00;99.90;;;;;;5003979;28;20169;-79
2022/07/29 09:39:33;;;;;;;3.70;1.27;;;18.00;99.90;;;;;;5007123;28;20050;-78
2022/07/29 09:42:04;;;;;;;3.90;1.40;;;17.90;99.90;;;;;;5018599;28;20069;-79
2022/07/29 09:44:48;;;;;;;5.90;1.35;;;17.90;99.90;;;;;;5009351;28;20061;-79
2022/07/29 09:47:14;;;;;;;5.82;1.33;;;17.90;99.90;;;;;;5006404;28;20485;-79
2022/07/29 09:49:57;;;;;;;4.60;1.42;;;17.90;99.90;;;;;;5005630;28;20153;-78
2022/07/29 09:52:24;;;;;;;5.20;1.20;;;18.00;99.90;;;;;;5018478;28;20527;-78
2022/07/29 09:54:50;;;;;;;4.15;1.00;;;18.00;99.90;;;;;;5012035;28;20088;-79
2022/07/29 09:57:28;;;;;;;5.07;1.27;;;18.00;99.90;;;;;;5007850;28;20508;-79
2022/07/29 10:00:00;;;;;;;3.47;1.48;;;18.00;99.90;;;;;;5007450;28;20488;-79
2022/07/29 10:02:35;;;;;;;9.45;1.52;;;18.00;99.90;;;;;;5022895;28;20045;-78
2022/07/29 10:05:02;;;;;;;3.95;1.05;;;18.10;99.90;;;;;;5007967;28;20068;-78
2022/07/29 10:07:52;;;;;;;3.40;1.20;;;18.20;99.90;;;;;;5015534;28;20044;-78
2022/07/29 10:10:23;;;;;;;2.78;1.10;;;18.30;99.90;;;;;;5001552;28;20473;-79
2022/07/29 10:12:51;;;;;;;3.70;1.13;;;18.40;99.90;;;;;;5007178;28;20126;-79
2022/07/29 10:15:17;;;;;;;4.82;1.50;;;18.50;99.90;;;;;;5005636;28;20124;-79
2022/07/29 10:17:43;;;;;;;5.00;1.17;;;18.50;99.90;;;;;;5007669;28;20089;-78
2022/07/29 10:20:09;;;;;;;4.90;1.98;;;18.50;99.90;;;;;;5007822;28;20503;-78
2022/07/29 10:22:36;;;;;;;3.47;1.10;;;18.60;99.90;;;;;;5001753;28;20045;-79
2022/07/29 10:25:02;;;;;;;4.28;1.60;;;18.70;99.90;;;;;;5005307;28;20799;-78
2022/07/29 10:27:28;;;;;;;5.75;1.20;;;19.00;99.90;;;;;;5005256;28;20124;-78
2022/07/29 10:29:54;;;;;;;3.85;1.52;;;19.40;99.90;;;;;;5005006;28;20040;-79
2022/07/29 10:32:33;;;;;;;2.45;1.15;;;19.70;99.90;;;;;;4998870;28;20038;-79
2022/07/29 10:35:32;;;;;;;5.53;1.58;;;20.00;99.90;;;;;;5006193;28;20049;-79
2022/07/29 10:38:11;;;;;;;4.45;1.60;;;20.20;99.90;;;;;;5020325;28;20493;-79
2022/07/29 10:43:27;;;;;;;3.55;1.30;;;20.70;99.90;;;;;;5024426;28;20073;-78
2022/07/29 10:45:57;;;;;;;6.60;1.38;;;20.70;99.90;;;;;;5004009;28;20733;-79
2022/07/29 10:48:23;;;;;;;6.72;1.30;;;20.80;99.90;;;;;;5007330;28;20068;-78
2022/07/29 10:50:56;;;;;;;5.28;1.70;;;20.80;99.90;;;;;;5004862;28;20509;-78
2022/07/29 10:53:23;;;;;;;6.63;1.92;;;20.90;99.90;;;;;;5006982;28;20125;-78
2022/07/29 10:55:51;;;;;;;6.60;1.55;;;20.80;99.90;;;;;;5005744;28;20436;-78
2022/07/29 10:58:23;;;;;;;4.97;1.40;;;21.00;99.90;;;;;;5005139;28;20056;-79
2022/07/29 11:00:53;;;;;;;10.65;2.45;;;21.10;99.90;;;;;;5020593;28;20472;-79
2022/07/29 11:03:47;;;;;;;4.88;1.35;;;21.10;99.90;;;;;;5007988;28;20044;-78
2022/07/29 11:06:13;;;;;;;4.53;1.30;;;21.10;99.90;;;;;;5004794;28;20048;-79
2022/07/29 11:08:39;;;;;;;3.80;1.70;;;21.10;99.90;;;;;;5013025;28;20038;-78
2022/07/29 11:11:19;;;;;;;5.38;1.10;;;21.10;99.90;;;;;;5006726;28;20104;-80
2022/07/29 11:13:50;;;;;;;6.45;1.80;;;21.30;99.90;;;;;;5018499;28;20057;-79
2022/07/29 11:16:18;;;;;;;5.68;1.20;;;21.40;99.90;;;;;;5018817;28;20056;-78
2022/07/29 11:19:15;;;;;;;4.03;1.25;;;21.50;99.90;;;;;;5008800;28;20643;-78
2022/07/29 11:21:43;;;;;;;2.72;0.90;;;21.40;99.90;;;;;;4985000;28;20132;-80
2022/07/29 11:24:27;;;;;;;3.85;1.23;;;21.30;99.90;;;;;;5007710;28;20050;-80
2022/07/29 11:27:30;;;;;;;4.05;1.52;;;21.30;99.90;;;;;;5005094;28;20602;-79
2022/07/29 11:29:59;;;;;;;4.57;1.40;;;21.30;99.90;;;;;;4972903;28;20053;-80
2022/07/29 11:32:34;;;;;;;5.55;1.40;;;21.40;99.90;;;;;;5005832;28;20049;-78
2022/07/29 11:35:15;;;;;;;7.70;1.88;;;21.40;99.90;;;;;;5007571;28;20069;-78
2022/07/29 11:37:41;;;;;;;5.28;1.75;;;21.50;99.90;;;;;;5002384;28;20045;-78
2022/07/29 11:40:09;;;;;;;5.47;2.05;;;21.40;99.90;;;;;;4999183;28;20041;-80
2022/07/29 11:42:35;;;;;;;5.93;1.80;;;21.40;99.90;;;;;;4998183;28;20061;-79
2022/07/29 11:45:15;;;;;;;4.57;1.67;;;21.30;99.90;;;;;;5000356;28;20038;-81
2022/07/29 11:47:46;;;;;;;4.13;1.83;;;21.20;99.90;;;;;;4990136;28;20046;-79
2022/07/29 11:50:14;;;;;;;4.70;1.60;;;21.30;99.90;;;;;;5000866;28;20042;-81
2022/07/29 11:52:48;;;;;;;6.05;2.00;;;21.40;99.90;;;;;;5014995;28;20038;-79
2022/07/29 11:55:17;;;;;;;2.95;1.52;;;21.60;99.90;;;;;;5002735;28;20378;-78
2022/07/29 11:57:47;;;;;;;4.85;1.75;;;21.80;99.90;;;;;;4987142;28;20038;-79
2022/07/29 12:00:27;;;;;;;4.65;1.70;;;22.00;99.90;;;;;;5007022;28;20060;-79
2022/07/29 12:02:54;;;;;;;4.25;1.45;;;22.20;99.90;;;;;;5002878;28;20811;-79
2022/07/29 12:05:20;;;;;;;3.88;1.35;;;22.40;99.90;;;;;;4999011;28;20053;-80
2022/07/29 12:07:47;;;;;;;6.45;1.63;;;22.50;99.90;;;;;;4997894;28;20068;-78
2022/07/29 12:10:13;;;;;;;8.32;1.33;;;22.50;99.90;;;;;;4998303;28;20544;-81
2022/07/29 12:12:39;;;;;;;5.18;1.92;;;22.60;99.90;;;;;;5000402;28;20137;-81
2022/07/29 12:15:20;;;;;;;5.65;1.90;;;22.50;99.90;;;;;;5002553;28;20132;-78
2022/07/29 12:17:47;;;;;;;5.03;1.42;;;22.30;99.90;;;;;;5002776;28;20510;-78
2022/07/29 12:20:13;;;;;;;5.78;1.75;;;22.30;99.90;;;;;;5000796;28;20073;-78
2022/07/29 12:22:43;;;;;;;4.32;1.50;;;22.10;99.90;;;;;;5000512;28;20420;-78
2022/07/29 12:25:11;;;;;;;3.42;1.10;;;22.10;99.90;;;;;;4998294;28;20180;-78
2022/07/29 12:27:38;;;;;;;3.88;1.58;;;22.00;99.90;;;;;;5002151;28;20042;-78
2022/07/29 12:30:08;;;;;;;10.00;0.90;;;22.10;99.90;;;;;;5001878;28;20983;-79
2022/07/29 12:32:47;;;;;;;4.20;1.42;;;22.20;99.90;;;;;;5002716;28;20038;-80
2022/07/29 12:35:19;;;;;;;10.07;1.40;;;22.30;99.90;;;;;;5004481;28;20099;-82
2022/07/29 12:37:51;;;;;;;4.70;1.58;;;22.30;99.90;;;;;;5000381;28;20038;-79
2022/07/29 12:40:17;;;;;;;3.55;1.25;;;22.20;99.90;;;;;;5001726;28;20084;-81
2022/07/29 12:43:12;;;;;;;13.98;1.60;;;22.40;99.90;;;;;;5000629;28;20046;-80
2022/07/29 12:45:39;;;;;;;3.00;1.38;;;22.60;99.90;;;;;;5001739;28;20125;-80
2022/07/29 12:48:08;;;;;;;7.65;2.00;;;22.80;99.90;;;;;;4986765;28;20045;-80
2022/07/29 12:50:35;;;;;;;4.50;1.70;;;22.90;99.90;;;;;;5003295;28;20748;-80
2022/07/29 12:53:11;;;;;;;19.13;1.40;;;23.00;99.90;;;;;;5008372;28;20156;-80
2022/07/29 12:55:42;;;;;;;5.35;1.13;;;23.10;99.90;;;;;;5004305;28;20046;-80
2022/07/29 12:58:08;;;;;;;10.32;1.17;;;23.10;99.90;;;;;;5003871;28;20045;-80
2022/07/29 13:00:33;;;;;;;29.17;3.28;;;23.10;99.90;;;;;;5003956;28;20049;-78
2022/07/29 13:03:00;;;;;;;10.05;1.50;;;23.00;99.90;;;;;;5005768;28;20424;-80